Time;durP1;ratioP1;P1;durP2;ratioP2;P2;SDS_P1;SDS_P2;PMS_P1;PMS_P2;Temp;Humidity;BMP_temperature;BMP_pressure;BME280_temperature;BME280_humidity;BME280_pressure;Samples;Min_cycle;Max_cycle;Signal;HPM_P1;HPM_P2
2022/07/11 00:02:05;;;;;;;6.93;4.25;;;14.90;99.90;;;;;;5074624;28;20044;-47
2022/07/11 00:04:33;;;;;;;8.73;5.35;;;15.40;99.90;;;;;;5076304;28;20130;-46
2022/07/11 00:07:01;;;;;;;11.25;5.35;;;15.70;99.90;;;;;;5075685;28;20809;-46
2022/07/11 00:09:27;;;;;;;12.05;5.57;;;15.00;99.90;;;;;;5076559;28;20550;-45
2022/07/11 00:11:54;;;;;;;11.68;5.25;;;15.10;99.90;;;;;;5073601;28;20040;-44
2022/07/11 00:14:23;;;;;;;8.60;5.15;;;17.00;99.90;;;;;;5073659;28;20032;-45
2022/07/11 00:16:50;;;;;;;7.88;4.82;;;15.60;99.90;;;;;;5075788;28;20048;-44
2022/07/11 00:19:16;;;;;;;7.95;4.57;;;15.00;99.90;;;;;;5075568;28;20040;-45
2022/07/11 00:21:42;;;;;;;10.20;5.20;;;14.90;99.90;;;;;;5075599;28;20510;-48
2022/07/11 00:24:08;;;;;;;8.75;5.35;;;14.90;99.90;;;;;;5076692;28;20055;-47
2022/07/11 00:26:36;;;;;;;12.90;6.15;;;15.20;99.90;;;;;;5075399;28;20044;-48
2022/07/11 00:29:04;;;;;;;10.25;4.97;;;15.20;99.90;;;;;;5075499;28;20032;-48
2022/07/11 00:31:30;;;;;;;13.70;4.88;;;15.10;99.90;;;;;;5074412;28;20504;-47
2022/07/11 00:33:57;;;;;;;12.27;5.13;;;16.90;99.90;;;;;;5073923;28;20040;-47
2022/07/11 00:36:25;;;;;;;15.60;5.45;;;14.80;99.90;;;;;;5073773;28;20040;-47
2022/07/11 00:38:50;;;;;;;8.57;5.15;;;15.90;99.90;;;;;;5074163;28;20048;-48
2022/07/11 00:41:16;;;;;;;12.23;5.38;;;14.80;99.90;;;;;;5073769;28;20731;-50
2022/07/11 00:43:43;;;;;;;9.45;5.47;;;14.70;99.90;;;;;;5074253;28;20136;-44
2022/07/11 00:46:11;;;;;;;10.90;5.50;;;14.70;99.90;;;;;;5075026;28;20039;-48
2022/07/11 00:52:17;;;;;;;13.82;5.72;;;14.70;99.90;;;;;;5073221;28;20077;-45
2022/07/11 00:54:44;;;;;;;9.52;4.93;;;14.80;99.90;;;;;;5074864;28;20083;-45
2022/07/11 00:57:10;;;;;;;10.32;4.93;;;16.90;99.90;;;;;;5074333;28;20047;-45
2022/07/11 00:59:38;;;;;;;11.93;4.75;;;15.70;99.90;;;;;;5074869;28;20187;-45
2022/07/11 01:02:07;;;;;;;10.93;5.07;;;14.80;99.90;;;;;;5074660;28;20047;-44
2022/07/11 01:04:32;;;;;;;8.90;4.95;;;14.80;99.90;;;;;;5074389;28;20055;-44
2022/07/11 01:06:58;;;;;;;14.63;5.25;;;16.60;99.90;;;;;;5074719;28;20040;-46
2022/07/11 01:09:24;;;;;;;11.07;5.60;;;14.80;99.90;;;;;;5073805;28;20040;-45
2022/07/11 01:11:50;;;;;;;12.32;6.05;;;14.60;99.90;;;;;;5072481;28;20093;-48
2022/07/11 01:14:16;;;;;;;8.60;4.65;;;14.80;99.90;;;;;;5073190;28;20754;-48
2022/07/11 01:16:41;;;;;;;10.68;4.97;;;14.70;99.90;;;;;;5076518;28;20036;-44
2022/07/11 01:19:07;;;;;;;8.32;4.70;;;14.90;99.90;;;;;;5074183;28;20032;-47
2022/07/11 01:21:39;;;;;;;10.77;4.70;;;14.90;99.90;;;;;;5073974;28;20126;-47
2022/07/11 01:24:08;;;;;;;9.07;4.53;;;16.70;99.90;;;;;;5072231;28;20036;-47
2022/07/11 01:26:34;;;;;;;8.18;4.47;;;15.10;99.90;;;;;;5073703;28;20036;-47
2022/07/11 01:29:12;;;;;;;8.65;4.47;;;14.80;99.90;;;;;;5073681;28;20496;-44
2022/07/11 01:31:39;;;;;;;13.05;4.80;;;15.50;99.90;;;;;;5074060;28;20051;-44
2022/07/11 01:34:05;;;;;;;8.23;4.32;;;14.70;99.90;;;;;;5073524;28;20516;-43
2022/07/11 01:36:31;;;;;;;8.88;4.43;;;14.80;99.90;;;;;;5074841;28;20040;-46
2022/07/11 01:38:56;;;;;;;10.90;4.95;;;15.70;99.90;;;;;;5075249;28;20051;-46
2022/07/11 01:41:22;;;;;;;10.52;4.88;;;14.70;99.90;;;;;;5074482;28;20035;-45
2022/07/11 01:43:50;;;;;;;12.70;4.22;;;16.50;99.90;;;;;;5074050;28;20046;-46
2022/07/11 01:46:16;;;;;;;9.40;4.47;;;14.60;99.90;;;;;;5074178;28;20047;-46
2022/07/11 01:48:42;;;;;;;13.45;4.72;;;14.70;99.90;;;;;;5074011;28;20594;-44
2022/07/11 01:51:07;;;;;;;9.15;4.43;;;14.70;99.90;;;;;;5074490;28;20036;-46
2022/07/11 01:53:33;;;;;;;9.70;5.43;;;14.80;99.90;;;;;;5073895;28;20409;-43
2022/07/11 01:56:02;;;;;;;8.55;4.47;;;15.80;99.90;;;;;;5072079;28;20409;-48
2022/07/11 01:58:30;;;;;;;9.30;4.78;;;14.70;99.90;;;;;;5073553;28;20044;-45
2022/07/11 02:00:57;;;;;;;9.30;4.70;;;15.80;99.90;;;;;;5073480;28;20052;-44
2022/07/11 02:03:23;;;;;;;8.70;4.05;;;14.80;99.90;;;;;;5073667;28;20036;-43
2022/07/11 02:05:49;;;;;;;9.50;5.32;;;15.70;99.90;;;;;;5073034;28;20040;-46
2022/07/11 02:08:14;;;;;;;12.30;4.95;;;14.70;99.90;;;;;;5072379;28;20048;-46
2022/07/11 02:10:41;;;;;;;11.70;5.15;;;15.50;99.90;;;;;;5074205;28;20127;-47
2022/07/11 02:13:09;;;;;;;10.25;4.78;;;14.70;99.90;;;;;;5073493;28;21141;-45
2022/07/11 02:15:35;;;;;;;9.32;5.22;;;15.00;99.90;;;;;;5074361;28;20036;-44
2022/07/11 02:18:01;;;;;;;7.70;4.07;;;15.10;99.90;;;;;;5074444;28;20063;-46
2022/07/11 02:20:30;;;;;;;12.00;5.05;;;14.80;99.90;;;;;;5074698;28;20123;-43
2022/07/11 02:22:58;;;;;;;10.65;5.20;;;14.90;99.90;;;;;;5073196;28;20119;-48
2022/07/11 02:25:23;;;;;;;10.60;5.20;;;14.80;99.90;;;;;;5075477;28;20516;-46
2022/07/11 02:27:50;;;;;;;8.88;4.53;;;14.80;99.90;;;;;;5076936;28;20093;-48
2022/07/11 02:30:15;;;;;;;11.43;5.35;;;15.90;99.90;;;;;;5077990;28;20124;-47
2022/07/11 02:32:42;;;;;;;12.45;5.63;;;14.90;99.90;;;;;;5076911;28;20032;-45
2022/07/11 02:35:10;;;;;;;9.30;4.68;;;16.70;99.90;;;;;;5078521;28;20048;-45
2022/07/11 02:37:35;;;;;;;8.68;4.80;;;15.30;99.90;;;;;;5076770;28;20048;-49
2022/07/11 02:40:03;;;;;;;12.13;4.45;;;14.90;99.90;;;;;;5076695;28;20429;-47
2022/07/11 02:42:29;;;;;;;9.68;4.78;;;13.50;99.90;;;;;;5076859;28;20035;-44
2022/07/11 02:44:54;;;;;;;7.55;4.32;;;15.00;99.90;;;;;;5077163;28;20093;-43
2022/07/11 02:47:22;;;;;;;10.10;4.38;;;14.70;99.90;;;;;;5077908;28;20081;-42
2022/07/11 02:49:48;;;;;;;10.07;4.70;;;16.80;99.90;;;;;;5077080;28;20500;-46
2022/07/11 02:52:14;;;;;;;6.80;4.07;;;14.80;99.90;;;;;;5075752;28;20214;-48
2022/07/11 02:54:39;;;;;;;9.02;4.72;;;15.30;99.90;;;;;;5073084;28;20048;-45
2022/07/11 02:57:05;;;;;;;9.20;3.92;;;16.30;99.90;;;;;;5076531;28;22034;-47
2022/07/11 02:59:31;;;;;;;9.85;3.95;;;14.90;99.90;;;;;;5076679;28;20150;-46
2022/07/11 03:01:57;;;;;;;7.28;4.53;;;14.70;99.90;;;;;;5077455;28;20492;-46
2022/07/11 03:04:22;;;;;;;11.38;4.50;;;15.50;99.90;;;;;;5077023;28;20426;-47
2022/07/11 03:06:48;;;;;;;10.60;4.43;;;15.50;99.90;;;;;;5076528;28;20076;-46
2022/07/11 03:09:14;;;;;;;7.50;4.18;;;16.60;99.90;;;;;;5074835;28;20041;-44
2022/07/11 03:11:39;;;;;;;11.18;4.47;;;14.70;99.90;;;;;;5077748;28;21344;-46
2022/07/11 03:14:05;;;;;;;7.32;3.92;;;14.60;99.90;;;;;;5076705;28;20337;-46
2022/07/11 03:16:31;;;;;;;8.43;4.20;;;14.80;99.90;;;;;;5076537;28;20036;-47
2022/07/11 03:18:57;;;;;;;6.28;4.43;;;15.00;99.90;;;;;;5077217;28;20142;-47
2022/07/11 03:21:24;;;;;;;7.60;3.70;;;15.00;99.90;;;;;;5070540;28;20074;-47
2022/07/11 03:23:53;;;;;;;6.50;3.85;;;14.70;99.90;;;;;;5074492;28;20088;-47
2022/07/11 03:26:19;;;;;;;8.82;3.53;;;17.00;99.90;;;;;;5076035;28;20108;-46
2022/07/11 03:28:45;;;;;;;7.80;3.60;;;14.80;99.90;;;;;;5077551;28;20071;-45
2022/07/11 03:31:10;;;;;;;9.02;3.53;;;15.30;99.90;;;;;;5075571;28;20142;-45
2022/07/11 03:33:36;;;;;;;6.70;3.28;;;15.20;99.90;;;;;;5076703;28;20044;-44
2022/07/11 03:36:03;;;;;;;7.85;3.25;;;14.90;99.90;;;;;;5075935;28;20040;-48
2022/07/11 03:38:28;;;;;;;8.02;3.00;;;14.70;99.90;;;;;;5076558;28;20386;-45
2022/07/11 03:40:55;;;;;;;6.25;3.03;;;14.60;99.90;;;;;;5075942;28;20837;-47
2022/07/11 03:43:22;;;;;;;5.70;2.80;;;14.80;99.90;;;;;;5075160;28;20079;-46
2022/07/11 03:45:50;;;;;;;10.13;3.40;;;15.20;99.90;;;;;;5075409;28;20519;-46
2022/07/11 03:48:15;;;;;;;6.00;2.97;;;15.80;99.90;;;;;;5077553;28;20496;-47
2022/07/11 03:50:41;;;;;;;7.38;2.90;;;16.70;99.90;;;;;;5075975;28;20047;-42
2022/07/11 03:53:09;;;;;;;6.35;2.80;;;14.70;99.90;;;;;;5076539;28;20584;-45
2022/07/11 03:55:34;;;;;;;5.82;3.00;;;14.90;99.90;;;;;;5076132;28;20048;-47
2022/07/11 03:58:00;;;;;;;9.15;3.90;;;14.90;99.90;;;;;;5075816;28;20052;-45
2022/07/11 04:00:28;;;;;;;5.75;3.15;;;15.50;99.90;;;;;;5075726;28;20089;-47
2022/07/11 04:02:54;;;;;;;7.90;3.10;;;14.80;99.90;;;;;;5074486;28;20043;-48
2022/07/11 04:05:20;;;;;;;8.55;3.00;;;14.90;99.90;;;;;;5074055;28;20440;-46
2022/07/11 04:07:45;;;;;;;7.53;2.72;;;17.10;99.90;;;;;;5073278;28;20051;-47
2022/07/11 04:10:11;;;;;;;6.85;2.70;;;14.90;99.90;;;;;;5075140;28;20036;-44
2022/07/11 04:12:37;;;;;;;7.88;2.85;;;14.90;99.90;;;;;;5075274;28;20039;-44
2022/07/11 04:15:06;;;;;;;6.85;2.53;;;14.80;99.90;;;;;;5074728;28;20104;-46
2022/07/11 04:17:32;;;;;;;5.70;2.42;;;14.90;99.90;;;;;;5074960;28;20044;-46
2022/07/11 04:19:57;;;;;;;5.20;1.98;;;15.40;99.90;;;;;;5074425;28;20055;-46
2022/07/11 04:22:24;;;;;;;5.40;1.70;;;15.90;99.90;;;;;;5076177;28;20627;-47
2022/07/11 04:24:49;;;;;;;4.47;1.63;;;15.10;99.90;;;;;;5073820;28;20044;-43
2022/07/11 04:27:15;;;;;;;6.93;1.85;;;15.00;99.90;;;;;;5075188;28;20051;-47
2022/07/11 04:29:40;;;;;;;4.55;1.70;;;15.00;99.90;;;;;;5074652;28;20036;-47
2022/07/11 04:32:07;;;;;;;5.30;1.75;;;14.90;99.90;;;;;;5075336;28;20043;-47
2022/07/11 04:34:33;;;;;;;5.97;1.80;;;14.90;99.90;;;;;;5075154;28;20101;-46
2022/07/11 04:36:59;;;;;;;5.80;2.08;;;14.80;99.90;;;;;;5073809;28;20044;-45
2022/07/11 04:39:24;;;;;;;4.00;1.58;;;14.90;99.90;;;;;;5075666;28;20454;-48
2022/07/11 04:41:50;;;;;;;5.60;1.52;;;15.10;99.90;;;;;;5075615;28;20572;-46
2022/07/11 04:44:16;;;;;;;5.13;1.85;;;14.90;99.90;;;;;;5075122;28;20036;-47
2022/07/11 04:46:44;;;;;;;5.85;1.95;;;16.50;99.90;;;;;;5074553;28;20768;-47
2022/07/11 04:49:09;;;;;;;4.05;1.58;;;14.90;99.90;;;;;;5074256;28;20136;-48
2022/07/11 04:51:36;;;;;;;5.15;2.00;;;15.00;99.90;;;;;;5073131;28;20576;-48
2022/07/11 04:54:02;;;;;;;6.18;2.03;;;14.80;99.90;;;;;;5074991;28;20109;-46
2022/07/11 04:56:28;;;;;;;4.88;2.40;;;15.00;99.90;;;;;;5074427;28;20794;-45
2022/07/11 04:58:55;;;;;;;5.60;1.95;;;15.00;99.90;;;;;;5074080;28;20167;-49
2022/07/11 05:01:23;;;;;;;4.55;1.63;;;14.90;99.90;;;;;;5074662;28;20040;-48
2022/07/11 05:03:48;;;;;;;7.32;1.92;;;17.20;99.90;;;;;;5074282;28;20044;-45
2022/07/11 05:06:14;;;;;;;3.60;1.63;;;15.00;99.90;;;;;;5075122;28;20548;-46
2022/07/11 05:08:41;;;;;;;4.60;1.90;;;15.00;99.90;;;;;;5075443;28;20044;-45
2022/07/11 05:11:07;;;;;;;5.00;2.35;;;15.70;99.90;;;;;;5074926;28;20055;-47
2022/07/11 05:13:32;;;;;;;6.13;1.92;;;15.20;99.90;;;;;;5074916;28;20055;-44
2022/07/11 05:15:58;;;;;;;9.15;2.00;;;16.90;99.90;;;;;;5074414;28;20044;-44
2022/07/11 05:18:24;;;;;;;4.90;1.80;;;15.70;99.90;;;;;;5076163;28;20098;-47
2022/07/11 05:20:50;;;;;;;3.05;1.58;;;15.10;99.90;;;;;;5074714;28;20112;-47
2022/07/11 05:23:15;;;;;;;5.63;1.85;;;15.30;99.90;;;;;;5074401;28;20447;-47
2022/07/11 05:25:41;;;;;;;5.15;2.10;;;15.80;99.90;;;;;;5073373;28;21398;-45
2022/07/11 05:28:09;;;;;;;4.35;1.65;;;15.20;99.90;;;;;;5074030;28;20162;-47
2022/07/11 05:30:34;;;;;;;4.07;1.50;;;16.10;99.90;;;;;;5074855;28;20119;-44
2022/07/11 05:33:00;;;;;;;5.63;1.95;;;15.30;99.90;;;;;;5074310;28;20051;-45
2022/07/11 05:35:28;;;;;;;3.03;1.30;;;17.00;99.90;;;;;;5074583;28;20055;-45
2022/07/11 05:37:54;;;;;;;4.22;1.50;;;15.20;99.90;;;;;;5074294;28;20869;-43
2022/07/11 05:40:20;;;;;;;2.63;1.33;;;17.30;99.90;;;;;;5074704;28;20047;-47
2022/07/11 05:42:45;;;;;;;4.50;1.70;;;15.60;99.90;;;;;;5073212;28;20040;-46
2022/07/11 05:45:13;;;;;;;5.03;1.40;;;15.30;99.90;;;;;;5073185;28;20032;-48
2022/07/11 05:47:39;;;;;;;2.72;1.10;;;15.40;99.90;;;;;;5074610;28;20125;-43
2022/07/11 05:50:05;;;;;;;4.70;1.35;;;15.50;99.90;;;;;;5074420;28;20040;-46
2022/07/11 05:52:31;;;;;;;3.83;1.48;;;15.40;99.90;;;;;;5072189;28;20131;-45
2022/07/11 05:54:57;;;;;;;4.50;1.30;;;15.60;99.90;;;;;;5074542;28;20540;-45
2022/07/11 05:57:23;;;;;;;3.42;1.13;;;15.60;99.90;;;;;;5074490;28;20051;-45
2022/07/11 05:59:50;;;;;;;5.25;1.33;;;15.40;99.90;;;;;;5075726;28;20036;-45
2022/07/11 06:02:16;;;;;;;3.35;1.23;;;15.30;99.90;;;;;;5077252;28;20176;-47
2022/07/11 06:04:45;;;;;;;3.67;1.25;;;15.30;99.90;;;;;;5078698;28;20048;-47
2022/07/11 06:08:40;;;;;;;4.80;1.20;;;15.50;99.90;;;;;;5077625;28;20538;-46
2022/07/11 06:09:58;;;;;;;1.88;1.00;;;15.50;99.90;;;;;;5078658;28;20087;-45
2022/07/11 06:12:23;;;;;;;2.53;0.90;;;16.10;99.90;;;;;;5077914;28;20348;-43
2022/07/11 06:14:49;;;;;;;3.03;1.30;;;15.70;99.90;;;;;;5076914;28;20085;-49
2022/07/11 06:17:15;;;;;;;3.28;1.20;;;15.70;99.90;;;;;;5077996;28;20036;-47
2022/07/11 06:19:40;;;;;;;3.55;1.17;;;15.70;99.90;;;;;;5077514;28;20044;-45
2022/07/11 06:22:06;;;;;;;4.20;1.10;;;15.50;99.90;;;;;;5078440;28;20365;-49
2022/07/11 06:24:32;;;;;;;3.67;1.20;;;17.40;99.90;;;;;;5077567;28;20093;-47
2022/07/11 06:27:00;;;;;;;2.75;1.08;;;15.60;99.90;;;;;;5077367;28;20040;-47
2022/07/11 06:29:26;;;;;;;1.98;0.80;;;15.90;99.90;;;;;;5077937;28;20071;-50
2022/07/11 06:31:52;;;;;;;3.85;1.33;;;15.80;99.90;;;;;;5077362;28;20484;-50
2022/07/11 06:34:18;;;;;;;2.50;0.95;;;15.80;99.90;;;;;;5078164;28;20113;-48
2022/07/11 06:36:44;;;;;;;2.05;1.00;;;15.90;99.90;;;;;;5077049;28;20048;-44
2022/07/11 06:39:13;;;;;;;3.33;0.88;;;17.90;99.90;;;;;;5076547;28;20508;-48
2022/07/11 06:41:40;;;;;;;2.47;0.85;;;17.90;99.90;;;;;;5076779;28;20071;-46
2022/07/11 06:44:06;;;;;;;4.10;0.93;;;15.80;99.90;;;;;;5077576;28;20499;-49
2022/07/11 06:46:32;;;;;;;2.92;0.70;;;16.10;99.90;;;;;;5076963;28;20099;-48
2022/07/11 06:48:59;;;;;;;1.70;0.70;;;15.90;99.90;;;;;;5077100;28;20331;-48
2022/07/11 06:51:25;;;;;;;3.45;0.82;;;17.30;99.90;;;;;;5076959;28;20118;-45
2022/07/11 06:53:51;;;;;;;1.67;0.90;;;16.00;99.90;;;;;;5076411;28;20143;-47
2022/07/11 06:56:19;;;;;;;2.42;0.73;;;15.80;99.90;;;;;;5077108;28;20068;-45
2022/07/11 06:58:45;;;;;;;3.95;0.88;;;16.00;99.90;;;;;;5075163;28;20086;-45
2022/07/11 07:01:11;;;;;;;2.38;0.82;;;15.90;99.90;;;;;;5077403;28;20068;-44
2022/07/11 07:03:38;;;;;;;3.40;0.80;;;16.40;99.90;;;;;;5077099;28;20479;-45
2022/07/11 07:06:05;;;;;;;5.72;1.20;;;16.20;99.90;;;;;;5076419;28;20086;-48
2022/07/11 07:08:31;;;;;;;5.57;1.00;;;16.50;99.90;;;;;;5077027;28;20386;-43
2022/07/11 07:10:57;;;;;;;3.13;0.93;;;15.80;99.90;;;;;;5074435;28;20047;-46
2022/07/11 07:13:25;;;;;;;3.05;1.00;;;16.50;99.90;;;;;;5076602;28;20296;-46
2022/07/11 07:15:52;;;;;;;3.50;1.20;;;16.60;99.90;;;;;;5076360;28;20083;-47
2022/07/11 07:18:18;;;;;;;2.95;0.98;;;16.20;99.90;;;;;;5076332;28;20123;-43
2022/07/11 07:20:44;;;;;;;4.63;0.98;;;16.00;99.90;;;;;;5076836;28;20304;-46
2022/07/11 07:23:09;;;;;;;2.95;0.82;;;16.00;99.90;;;;;;5077671;28;20068;-48
2022/07/11 07:25:37;;;;;;;3.85;0.70;;;16.10;99.90;;;;;;5074967;28;20039;-46
2022/07/11 07:28:03;;;;;;;4.55;0.82;;;18.40;99.90;;;;;;5076607;28;20040;-43
2022/07/11 07:30:29;;;;;;;5.15;0.90;;;16.40;99.90;;;;;;5076175;28;20047;-45
2022/07/11 07:32:55;;;;;;;2.00;0.88;;;17.70;99.90;;;;;;5076710;28;21312;-45
2022/07/11 07:35:20;;;;;;;4.90;0.70;;;17.10;99.90;;;;;;5076490;28;20032;-45
2022/07/11 07:37:46;;;;;;;2.58;0.70;;;16.90;99.90;;;;;;5075689;28;20048;-43
2022/07/11 07:40:12;;;;;;;1.73;0.70;;;17.10;99.90;;;;;;5075379;28;20039;-43
2022/07/11 07:42:37;;;;;;;1.73;0.57;;;19.60;99.90;;;;;;5075946;28;20093;-45
2022/07/11 07:45:03;;;;;;;3.78;0.90;;;18.00;99.90;;;;;;5076760;28;20036;-47
2022/07/11 07:47:31;;;;;;;1.17;0.30;;;17.60;99.90;;;;;;5075687;28;20040;-45
2022/07/11 07:49:57;;;;;;;1.63;0.40;;;17.70;99.90;;;;;;5076208;28;20040;-47
2022/07/11 07:52:22;;;;;;;2.08;0.47;;;17.30;99.90;;;;;;5076268;28;20403;-45
2022/07/11 07:54:48;;;;;;;3.75;0.70;;;17.20;99.90;;;;;;5075901;28;20261;-46
2022/07/11 07:57:14;;;;;;;2.40;0.52;;;17.30;99.90;;;;;;5076067;28;20081;-45
2022/07/11 07:59:39;;;;;;;0.50;0.30;;;18.50;99.90;;;;;;5075590;28;20038;-48
2022/07/11 08:02:06;;;;;;;1.25;0.40;;;19.50;99.90;;;;;;5074960;28;20417;-45
2022/07/11 08:04:31;;;;;;;0.75;0.25;;;20.20;99.90;;;;;;5076177;28;20115;-49
2022/07/11 08:06:59;;;;;;;1.67;0.40;;;20.50;99.90;;;;;;5075857;28;20051;-47
2022/07/11 08:09:26;;;;;;;1.70;0.50;;;20.40;99.90;;;;;;5075141;28;20772;-47
2022/07/11 08:11:52;;;;;;;2.42;0.40;;;19.90;99.90;;;;;;5075134;28;20495;-47
2022/07/11 08:14:18;;;;;;;0.45;0.25;;;19.70;99.90;;;;;;5075811;28;20036;-47
2022/07/11 08:16:44;;;;;;;2.05;0.32;;;19.20;99.90;;;;;;5075172;28;20419;-45
2022/07/11 08:19:11;;;;;;;1.35;0.30;;;18.90;99.90;;;;;;5074636;28;20053;-46
2022/07/11 08:21:37;;;;;;;2.58;0.50;;;20.00;99.90;;;;;;5074385;28;20040;-48
2022/07/11 08:24:03;;;;;;;1.65;0.40;;;18.70;99.90;;;;;;5074727;28;20034;-49
2022/07/11 08:26:30;;;;;;;1.42;0.20;;;19.10;99.90;;;;;;5073962;28;20036;-47
2022/07/11 08:28:56;;;;;;;1.05;0.20;;;20.00;99.90;;;;;;5074589;28;21091;-47
2022/07/11 08:31:22;;;;;;;2.22;0.30;;;21.20;99.90;;;;;;5074457;28;20032;-45
2022/07/11 08:33:48;;;;;;;1.45;0.25;;;19.90;99.90;;;;;;5074890;28;20063;-48
2022/07/11 08:36:14;;;;;;;0.82;0.30;;;19.30;99.90;;;;;;5074531;28;20484;-45
2022/07/11 08:38:46;;;;;;;2.38;0.40;;;21.10;99.90;;;;;;5072980;28;20146;-47
2022/07/11 08:41:12;;;;;;;0.50;0.17;;;21.20;99.90;;;;;;5073698;28;20437;-47
2022/07/11 08:43:40;;;;;;;0.75;0.30;;;18.50;99.90;;;;;;5074991;28;20081;-47
2022/07/11 08:46:09;;;;;;;1.27;0.22;;;18.30;99.90;;;;;;5073341;28;20086;-47
2022/07/11 08:48:38;;;;;;;1.05;0.32;;;20.30;99.90;;;;;;5076139;28;20131;-47
2022/07/11 08:51:06;;;;;;;1.58;0.35;;;18.00;99.90;;;;;;5075889;28;20249;-48
2022/07/11 08:53:37;;;;;;;0.80;0.22;;;20.00;99.90;;;;;;5074135;28;20036;-46
2022/07/11 08:56:03;;;;;;;1.20;0.32;;;17.90;99.90;;;;;;5073515;28;20056;-43
2022/07/11 08:58:31;;;;;;;1.58;0.30;;;18.00;99.90;;;;;;5075014;28;20113;-47
2022/07/11 09:00:57;;;;;;;0.98;0.20;;;19.00;99.90;;;;;;5074523;28;20043;-44
2022/07/11 09:03:23;;;;;;;0.80;0.22;;;19.20;99.90;;;;;;5074872;28;20051;-48
2022/07/11 09:05:48;;;;;;;0.93;0.30;;;18.70;99.90;;;;;;5076037;28;20107;-47
2022/07/11 09:08:16;;;;;;;0.10;0.10;;;18.20;99.90;;;;;;5075082;28;20040;-48
2022/07/11 09:10:43;;;;;;;1.38;0.28;;;18.20;99.90;;;;;;5074869;28;20075;-44
2022/07/11 09:13:15;;;;;;;0.63;0.32;;;18.20;99.90;;;;;;5074958;28;20044;-45
2022/07/11 09:15:48;;;;;;;0.98;0.25;;;18.40;99.90;;;;;;5075071;28;20040;-49
2022/07/11 09:18:49;;;;;;;0.75;0.20;;;18.00;99.90;;;;;;5074999;28;20088;-48
2022/07/11 09:26:51;;;;;;;1.40;0.30;;;17.90;99.90;;;;;;4992475;28;20124;-48
2022/07/11 09:29:27;;;;;;;1.55;0.25;;;18.20;99.90;;;;;;4991617;28;20053;-47
2022/07/11 09:31:53;;;;;;;0.65;0.20;;;18.10;99.90;;;;;;4992440;28;20108;-46
2022/07/11 09:34:27;;;;;;;0.40;0.20;;;18.20;99.90;;;;;;4992393;28;20050;-47
2022/07/11 09:36:54;;;;;;;0.80;0.20;;;20.20;99.90;;;;;;4991765;28;20189;-47
2022/07/11 09:39:26;;;;;;;2.53;0.30;;;18.20;99.90;;;;;;4991096;28;20482;-47
2022/07/11 09:41:53;;;;;;;;;;;18.10;99.90;;;;;;4992471;28;20054;-47
2022/07/11 09:44:24;;;;;;;2.72;0.30;;;18.70;99.90;;;;;;4991819;28;19921;-44
2022/07/11 09:46:51;;;;;;;1.80;0.20;;;18.20;99.90;;;;;;4991450;28;20053;-45
2022/07/11 09:49:29;;;;;;;0.88;0.30;;;18.80;99.90;;;;;;4992422;28;20633;-45
2022/07/11 09:52:05;;;;;;;1.67;0.30;;;17.90;99.90;;;;;;4992195;28;20125;-47
2022/07/11 09:54:31;;;;;;;2.33;0.35;;;18.20;99.90;;;;;;5007205;28;20080;-44
2022/07/11 09:57:00;;;;;;;1.40;0.13;;;18.30;99.90;;;;;;5074890;28;20040;-42
2022/07/11 09:59:26;;;;;;;0.82;0.28;;;18.50;99.90;;;;;;5073669;28;20759;-48
2022/07/11 10:01:51;;;;;;;0.77;0.20;;;18.30;99.90;;;;;;5074313;28;20048;-47
2022/07/11 10:04:17;;;;;;;1.10;0.30;;;18.60;99.90;;;;;;5074646;28;20032;-48
2022/07/11 10:06:44;;;;;;;2.88;0.40;;;18.30;99.90;;;;;;5074010;28;20131;-47
2022/07/11 10:09:10;;;;;;;1.85;0.35;;;18.30;99.90;;;;;;5073712;28;20040;-43
2022/07/11 10:11:36;;;;;;;1.40;0.30;;;18.30;99.90;;;;;;5073609;28;20097;-47
2022/07/11 10:14:07;;;;;;;1.00;0.20;;;19.20;99.90;;;;;;5073806;28;20039;-46
2022/07/11 10:17:01;;;;;;;2.17;0.40;;;17.90;99.90;;;;;;5073163;28;20036;-48
2022/07/11 10:19:50;;;;;;;1.15;0.55;;;19.40;99.90;;;;;;5013025;28;20107;-44
2022/07/11 10:22:26;;;;;;;0.93;0.40;;;18.40;99.90;;;;;;5011908;28;20191;-45
2022/07/11 10:25:21;;;;;;;1.48;0.30;;;18.40;99.90;;;;;;5010321;28;20050;-43
2022/07/11 10:28:23;;;;;;;1.00;0.20;;;18.30;99.90;;;;;;5010666;28;20050;-48
2022/07/11 10:30:51;;;;;;;0.93;0.40;;;18.30;99.90;;;;;;4952689;28;20047;-43
2022/07/11 10:33:19;;;;;;;0.47;0.40;;;18.30;99.90;;;;;;4952607;28;20054;-48
2022/07/11 10:35:48;;;;;;;0.75;0.32;;;18.70;99.90;;;;;;4952988;28;20055;-44
2022/07/11 10:38:16;;;;;;;1.30;0.43;;;18.30;99.90;;;;;;4953595;28;20054;-44
2022/07/11 10:40:45;;;;;;;0.90;0.30;;;18.60;99.90;;;;;;4953316;28;20777;-48
2022/07/11 10:43:30;;;;;;;1.38;0.30;;;18.20;99.90;;;;;;4953776;28;20564;-46
2022/07/11 10:46:07;;;;;;;1.63;0.30;;;18.30;99.90;;;;;;4954498;28;20046;-46
2022/07/11 10:48:35;;;;;;;0.47;0.38;;;19.50;99.90;;;;;;4956014;28;20129;-46
2022/07/11 10:51:08;;;;;;;1.80;0.38;;;18.50;99.90;;;;;;4957014;28;20496;-43
2022/07/11 10:53:43;;;;;;;2.10;0.30;;;18.70;99.90;;;;;;4955177;28;20055;-45
2022/07/11 10:56:41;;;;;;;0.45;0.20;;;18.70;99.90;;;;;;4970347;28;20057;-45
2022/07/11 10:59:19;;;;;;;0.80;0.20;;;18.60;99.90;;;;;;5035011;28;20485;-44
2022/07/11 11:02:06;;;;;;;0.55;0.30;;;20.80;99.90;;;;;;5034133;28;20053;-44
2022/07/11 11:04:57;;;;;;;1.80;0.28;;;18.80;99.90;;;;;;5032552;28;20122;-45
2022/07/11 11:07:42;;;;;;;1.38;0.40;;;19.00;99.90;;;;;;5049628;28;20051;-48
2022/07/11 11:10:29;;;;;;;1.45;0.30;;;18.90;99.90;;;;;;5076713;28;20036;-44
2022/07/11 11:13:05;;;;;;;2.58;0.57;;;18.90;99.90;;;;;;5076892;28;21015;-46
2022/07/11 11:15:35;;;;;;;2.92;0.57;;;19.10;99.90;;;;;;5076323;28;20036;-45
2022/07/11 11:18:25;;;;;;;1.75;0.50;;;19.00;99.90;;;;;;5076779;28;20149;-44
2022/07/11 11:21:11;;;;;;;1.45;0.40;;;19.00;99.90;;;;;;5077090;28;20496;-47
2022/07/11 11:23:39;;;;;;;1.90;0.45;;;18.80;99.90;;;;;;5012644;28;20060;-44
2022/07/11 11:26:17;;;;;;;3.13;0.80;;;18.60;99.90;;;;;;5013069;28;20049;-46
2022/07/11 11:28:58;;;;;;;2.40;0.60;;;18.60;99.90;;;;;;5013873;28;20053;-47
2022/07/11 11:31:26;;;;;;;1.15;0.63;;;18.50;99.90;;;;;;5013181;28;20581;-45
2022/07/11 11:33:51;;;;;;;3.17;0.80;;;19.80;99.90;;;;;;4996619;28;20042;-48
2022/07/11 11:36:19;;;;;;;2.42;0.70;;;18.80;99.90;;;;;;5013095;28;20084;-46
2022/07/11 11:38:48;;;;;;;3.20;0.90;;;19.00;99.90;;;;;;5012217;28;20091;-47
2022/07/11 11:41:25;;;;;;;0.98;0.40;;;19.00;99.90;;;;;;5013767;28;20053;-49
2022/07/11 11:43:52;;;;;;;1.33;0.40;;;18.90;99.90;;;;;;5012816;28;20034;-49
2022/07/11 11:46:17;;;;;;;1.10;0.40;;;18.90;99.90;;;;;;5012229;28;20060;-47
2022/07/11 11:48:46;;;;;;;1.02;0.50;;;19.20;99.90;;;;;;5012544;28;20062;-49
2022/07/11 11:51:14;;;;;;;1.23;0.60;;;19.10;99.90;;;;;;5014027;28;20068;-48
2022/07/11 11:53:43;;;;;;;1.20;0.47;;;19.00;99.90;;;;;;5013338;28;20159;-47
2022/07/11 11:56:16;;;;;;;1.20;0.20;;;19.70;99.90;;;;;;5011380;28;20053;-46
2022/07/11 11:58:44;;;;;;;1.42;0.30;;;19.00;99.90;;;;;;5011956;28;20073;-46
2022/07/11 12:01:14;;;;;;;2.35;0.50;;;19.10;99.90;;;;;;5054554;28;20140;-48
2022/07/11 12:03:50;;;;;;;1.30;0.35;;;19.10;99.90;;;;;;5075363;28;20082;-49
2022/07/11 12:06:20;;;;;;;2.55;0.70;;;19.10;99.90;;;;;;5074949;28;20736;-49
2022/07/11 12:08:46;;;;;;;4.32;0.70;;;18.90;99.90;;;;;;5074973;28;20136;-47
2022/07/11 12:11:14;;;;;;;1.70;0.80;;;19.00;99.90;;;;;;5075556;28;20544;-49
2022/07/11 12:13:41;;;;;;;1.75;0.80;;;19.40;99.90;;;;;;5074807;28;20043;-48
2022/07/11 12:19:03;;;;;;;3.92;0.90;;;19.20;99.90;;;;;;5074426;28;20040;-49
2022/07/11 12:21:30;;;;;;;1.95;0.70;;;19.00;99.90;;;;;;5075336;28;20396;-50
2022/07/11 12:24:01;;;;;;;2.15;0.60;;;18.80;99.90;;;;;;5074705;28;20046;-48
2022/07/11 12:26:32;;;;;;;1.13;0.70;;;21.30;99.90;;;;;;5075027;28;20036;-48
2022/07/11 12:29:24;;;;;;;1.60;0.60;;;19.10;99.90;;;;;;5074192;28;20044;-48
2022/07/11 12:31:54;;;;;;;2.47;0.70;;;19.00;99.90;;;;;;4995273;28;20493;-48
2022/07/11 12:34:22;;;;;;;1.90;0.80;;;19.10;99.90;;;;;;5011783;28;20159;-45
2022/07/11 12:36:48;;;;;;;3.38;0.70;;;19.00;99.90;;;;;;4995856;28;20521;-49
2022/07/11 12:39:28;;;;;;;0.88;0.50;;;18.90;99.90;;;;;;5012091;28;20033;-45
2022/07/11 12:41:55;;;;;;;0.50;0.50;;;18.80;99.90;;;;;;5010941;28;20053;-48
2022/07/11 12:47:23;;;;;;;2.05;0.70;;;19.10;99.90;;;;;;5009976;28;20052;-45
2022/07/11 12:49:50;;;;;;;1.17;0.57;;;18.90;99.90;;;;;;5011242;28;20057;-46
2022/07/11 12:52:17;;;;;;;1.40;0.50;;;18.90;99.90;;;;;;5010825;28;20124;-49
2022/07/11 12:54:43;;;;;;;2.15;0.70;;;19.60;99.90;;;;;;5010336;28;20592;-46
2022/07/11 12:57:10;;;;;;;3.22;0.70;;;21.40;99.90;;;;;;5011377;28;20046;-46
2022/07/11 12:59:39;;;;;;;2.38;0.50;;;19.10;99.90;;;;;;5012418;28;20069;-48
2022/07/11 13:02:13;;;;;;;1.60;0.50;;;19.90;99.90;;;;;;5011773;28;20152;-49
2022/07/11 13:04:49;;;;;;;1.83;0.60;;;20.50;99.90;;;;;;5011148;28;20052;-49
2022/07/11 13:10:50;;;;;;;0.50;0.50;;;19.40;99.90;;;;;;5037333;28;20595;-46